sensor_id;sensor_type;location;lat;lon;timestamp;pressure;altitude;pressure_sealevel;temperature;humidity
57885;BME280;43703;51.060;-0.086;2022-09-27T00:01:08;98948.04;;;9.42;62.07
57885;BME280;43703;51.060;-0.086;2022-09-27T00:03:31;98943.79;;;8.93;61.90
57885;BME280;43703;51.060;-0.086;2022-09-27T00:06:01;98947.17;;;9.02;61.79
57885;BME280;43703;51.060;-0.086;2022-09-27T00:08:21;98949.69;;;8.22;63.01
57885;BME280;43703;51.060;-0.086;2022-09-27T00:10:46;98947.78;;;9.44;61.68
57885;BME280;43703;51.060;-0.086;2022-09-27T00:13:11;98950.78;;;8.85;61.18
57885;BME280;43703;51.060;-0.086;2022-09-27T00:15:36;98950.10;;;8.74;62.84
57885;BME280;43703;51.060;-0.086;2022-09-27T00:18:01;98950.43;;;9.11;61.41
57885;BME280;43703;51.060;-0.086;2022-09-27T00:20:26;98954.15;;;9.47;62.18
57885;BME280;43703;51.060;-0.086;2022-09-27T00:22:52;98948.74;;;9.34;61.39
57885;BME280;43703;51.060;-0.086;2022-09-27T00:25:17;98946.83;;;9.01;63.11
57885;BME280;43703;51.060;-0.086;2022-09-27T00:27:43;98946.76;;;9.92;62.56
57885;BME280;43703;51.060;-0.086;2022-09-27T00:30:08;98948.79;;;9.41;61.77
57885;BME280;43703;51.060;-0.086;2022-09-27T00:32:32;98947.77;;;9.04;62.75
57885;BME280;43703;51.060;-0.086;2022-09-27T00:34:57;98947.45;;;9.48;59.75
57885;BME280;43703;51.060;-0.086;2022-09-27T00:37:22;98945.19;;;9.28;61.10
57885;BME280;43703;51.060;-0.086;2022-09-27T00:39:47;98946.45;;;9.20;61.71
57885;BME280;43703;51.060;-0.086;2022-09-27T00:42:12;98948.73;;;10.01;60.86
57885;BME280;43703;51.060;-0.086;2022-09-27T00:47:07;98955.17;;;9.47;59.53
57885;BME280;43703;51.060;-0.086;2022-09-27T00:49:32;98953.95;;;9.32;59.69
57885;BME280;43703;51.060;-0.086;2022-09-27T00:51:56;98957.72;;;9.50;59.83
57885;BME280;43703;51.060;-0.086;2022-09-27T00:54:19;98951.48;;;10.11;60.69
57885;BME280;43703;51.060;-0.086;2022-09-27T00:56:43;98956.67;;;9.02;60.29
57885;BME280;43703;51.060;-0.086;2022-09-27T00:59:12;98955.45;;;9.64;60.36
57885;BME280;43703;51.060;-0.086;2022-09-27T01:01:33;98953.16;;;9.30;61.20
57885;BME280;43703;51.060;-0.086;2022-09-27T01:04:02;98957.70;;;9.26;60.60
57885;BME280;43703;51.060;-0.086;2022-09-27T01:06:23;98961.11;;;9.13;62.04
57885;BME280;43703;51.060;-0.086;2022-09-27T01:08:49;98962.27;;;8.04;61.51
57885;BME280;43703;51.060;-0.086;2022-09-27T01:11:21;98965.40;;;8.50;63.77
57885;BME280;43703;51.060;-0.086;2022-09-27T01:13:46;98964.93;;;9.00;62.60
57885;BME280;43703;51.060;-0.086;2022-09-27T01:16:11;98960.00;;;9.00;60.94
57885;BME280;43703;51.060;-0.086;2022-09-27T01:18:32;98965.60;;;8.84;61.80
57885;BME280;43703;51.060;-0.086;2022-09-27T01:23:33;98964.73;;;8.59;60.26
57885;BME280;43703;51.060;-0.086;2022-09-27T01:25:54;98964.27;;;9.01;60.07
57885;BME280;43703;51.060;-0.086;2022-09-27T01:28:19;98967.02;;;9.08;62.53
57885;BME280;43703;51.060;-0.086;2022-09-27T01:30:43;98966.37;;;10.01;60.26
57885;BME280;43703;51.060;-0.086;2022-09-27T01:33:13;98969.89;;;8.90;60.70
57885;BME280;43703;51.060;-0.086;2022-09-27T01:35:33;98969.23;;;7.72;62.76
57885;BME280;43703;51.060;-0.086;2022-09-27T01:38:01;98964.36;;;7.95;63.41
57885;BME280;43703;51.060;-0.086;2022-09-27T01:40:23;98958.08;;;8.07;61.22
57885;BME280;43703;51.060;-0.086;2022-09-27T01:42:47;98963.92;;;9.08;61.54
57885;BME280;43703;51.060;-0.086;2022-09-27T01:45:14;98962.05;;;8.67;62.15
57885;BME280;43703;51.060;-0.086;2022-09-27T01:47:38;98961.07;;;8.42;61.62
57885;BME280;43703;51.060;-0.086;2022-09-27T01:50:02;98960.52;;;8.93;62.56
57885;BME280;43703;51.060;-0.086;2022-09-27T01:52:30;98961.48;;;7.96;62.81
57885;BME280;43703;51.060;-0.086;2022-09-27T01:54:54;98961.36;;;8.16;61.42
57885;BME280;43703;51.060;-0.086;2022-09-27T01:57:19;98959.92;;;8.35;60.64
57885;BME280;43703;51.060;-0.086;2022-09-27T01:59:44;98961.53;;;8.46;63.44
57885;BME280;43703;51.060;-0.086;2022-09-27T02:02:08;98964.83;;;7.44;63.22
57885;BME280;43703;51.060;-0.086;2022-09-27T02:04:32;98960.87;;;7.51;65.19
57885;BME280;43703;51.060;-0.086;2022-09-27T02:06:58;98959.58;;;7.90;62.93
57885;BME280;43703;51.060;-0.086;2022-09-27T02:09:22;98956.44;;;8.55;61.87
57885;BME280;43703;51.060;-0.086;2022-09-27T02:11:47;98954.21;;;9.23;62.39
57885;BME280;43703;51.060;-0.086;2022-09-27T02:14:14;98953.25;;;8.60;60.85
57885;BME280;43703;51.060;-0.086;2022-09-27T02:16:39;98939.78;;;8.97;60.62
57885;BME280;43703;51.060;-0.086;2022-09-27T02:19:06;98935.70;;;8.34;60.01
57885;BME280;43703;51.060;-0.086;2022-09-27T02:21:31;98924.21;;;8.86;61.85
57885;BME280;43703;51.060;-0.086;2022-09-27T02:23:52;98935.66;;;9.02;60.31
57885;BME280;43703;51.060;-0.086;2022-09-27T02:26:17;98941.16;;;8.34;62.47
57885;BME280;43703;51.060;-0.086;2022-09-27T02:28:42;98945.53;;;6.35;64.05
57885;BME280;43703;51.060;-0.086;2022-09-27T02:31:05;98955.82;;;8.00;64.21
57885;BME280;43703;51.060;-0.086;2022-09-27T02:33:33;98955.90;;;8.44;62.65
57885;BME280;43703;51.060;-0.086;2022-09-27T02:35:54;98949.99;;;8.35;62.89
57885;BME280;43703;51.060;-0.086;2022-09-27T02:38:19;98941.37;;;6.79;63.10
57885;BME280;43703;51.060;-0.086;2022-09-27T02:40:46;98939.18;;;8.09;62.94
57885;BME280;43703;51.060;-0.086;2022-09-27T02:43:10;98941.73;;;7.98;61.73
57885;BME280;43703;51.060;-0.086;2022-09-27T02:45:41;98941.45;;;7.01;63.43
57885;BME280;43703;51.060;-0.086;2022-09-27T02:48:08;98940.68;;;7.49;63.63
57885;BME280;43703;51.060;-0.086;2022-09-27T02:50:32;98945.72;;;7.11;62.39
57885;BME280;43703;51.060;-0.086;2022-09-27T02:52:55;98942.42;;;8.37;62.70
57885;BME280;43703;51.060;-0.086;2022-09-27T02:55:19;98944.27;;;8.52;62.95
57885;BME280;43703;51.060;-0.086;2022-09-27T02:57:49;98947.19;;;7.34;63.31
57885;BME280;43703;51.060;-0.086;2022-09-27T03:00:07;98949.96;;;8.26;62.77
57885;BME280;43703;51.060;-0.086;2022-09-27T03:02:33;98948.83;;;8.53;61.59
57885;BME280;43703;51.060;-0.086;2022-09-27T03:04:58;98949.83;;;7.84;61.65
57885;BME280;43703;51.060;-0.086;2022-09-27T03:07:20;98945.18;;;8.97;62.67
57885;BME280;43703;51.060;-0.086;2022-09-27T03:09:47;98938.47;;;8.34;61.05
57885;BME280;43703;51.060;-0.086;2022-09-27T03:12:10;98939.96;;;8.05;61.58
57885;BME280;43703;51.060;-0.086;2022-09-27T03:14:34;98942.31;;;7.98;60.77
57885;BME280;43703;51.060;-0.086;2022-09-27T03:16:59;98939.13;;;8.63;61.50
57885;BME280;43703;51.060;-0.086;2022-09-27T03:19:25;98930.07;;;7.81;64.01
57885;BME280;43703;51.060;-0.086;2022-09-27T03:21:49;98925.14;;;8.07;61.93
57885;BME280;43703;51.060;-0.086;2022-09-27T03:24:15;98920.62;;;8.17;62.89
57885;BME280;43703;51.060;-0.086;2022-09-27T03:26:40;98924.45;;;8.53;61.96
57885;BME280;43703;51.060;-0.086;2022-09-27T03:29:05;98916.12;;;7.48;61.53
57885;BME280;43703;51.060;-0.086;2022-09-27T03:31:31;98915.60;;;8.26;63.66
57885;BME280;43703;51.060;-0.086;2022-09-27T03:33:57;98919.06;;;7.67;60.43
57885;BME280;43703;51.060;-0.086;2022-09-27T03:36:22;98921.70;;;8.12;60.64
57885;BME280;43703;51.060;-0.086;2022-09-27T03:38:47;98923.97;;;8.82;59.96
57885;BME280;43703;51.060;-0.086;2022-09-27T03:41:12;98930.31;;;8.84;62.04
57885;BME280;43703;51.060;-0.086;2022-09-27T03:43:37;98925.95;;;7.53;60.51
57885;BME280;43703;51.060;-0.086;2022-09-27T03:46:02;98929.74;;;7.66;62.32
57885;BME280;43703;51.060;-0.086;2022-09-27T03:48:28;98923.20;;;7.34;61.94
57885;BME280;43703;51.060;-0.086;2022-09-27T03:50:53;98929.82;;;8.33;62.88
57885;BME280;43703;51.060;-0.086;2022-09-27T03:53:18;98932.70;;;7.29;60.69
57885;BME280;43703;51.060;-0.086;2022-09-27T03:55:44;98929.77;;;7.46;60.73
57885;BME280;43703;51.060;-0.086;2022-09-27T03:58:08;98928.37;;;7.34;61.08
57885;BME280;43703;51.060;-0.086;2022-09-27T04:00:33;98924.79;;;7.45;62.62
57885;BME280;43703;51.060;-0.086;2022-09-27T04:02:58;98925.82;;;7.70;60.26
57885;BME280;43703;51.060;-0.086;2022-09-27T04:05:24;98926.34;;;7.67;60.71
57885;BME280;43703;51.060;-0.086;2022-09-27T04:07:48;98930.39;;;7.89;62.45
57885;BME280;43703;51.060;-0.086;2022-09-27T04:10:13;98932.37;;;8.58;62.57
57885;BME280;43703;51.060;-0.086;2022-09-27T04:12:38;98934.63;;;8.41;59.06
57885;BME280;43703;51.060;-0.086;2022-09-27T04:15:03;98928.56;;;8.58;62.13
57885;BME280;43703;51.060;-0.086;2022-09-27T04:17:28;98926.89;;;8.76;59.46
57885;BME280;43703;51.060;-0.086;2022-09-27T04:19:53;98929.14;;;9.16;58.97
57885;BME280;43703;51.060;-0.086;2022-09-27T04:22:18;98937.34;;;8.11;59.22
57885;BME280;43703;51.060;-0.086;2022-09-27T04:24:43;98937.44;;;8.93;61.35
57885;BME280;43703;51.060;-0.086;2022-09-27T04:27:08;98940.22;;;8.15;60.29
57885;BME280;43703;51.060;-0.086;2022-09-27T04:29:33;98936.89;;;8.72;62.10
57885;BME280;43703;51.060;-0.086;2022-09-27T04:31:58;98935.72;;;8.56;60.18
57885;BME280;43703;51.060;-0.086;2022-09-27T04:34:23;98939.53;;;8.78;61.36
57885;BME280;43703;51.060;-0.086;2022-09-27T04:36:48;98940.55;;;8.58;61.00
57885;BME280;43703;51.060;-0.086;2022-09-27T04:39:13;98939.25;;;7.85;60.16
57885;BME280;43703;51.060;-0.086;2022-09-27T04:41:38;98939.88;;;8.05;60.78
57885;BME280;43703;51.060;-0.086;2022-09-27T04:44:04;98938.98;;;7.55;61.36
57885;BME280;43703;51.060;-0.086;2022-09-27T04:46:29;98939.84;;;8.49;61.72
57885;BME280;43703;51.060;-0.086;2022-09-27T04:48:54;98937.50;;;8.07;60.79
57885;BME280;43703;51.060;-0.086;2022-09-27T04:51:19;98930.90;;;6.89;62.72
57885;BME280;43703;51.060;-0.086;2022-09-27T04:53:44;98928.86;;;7.14;62.15
57885;BME280;43703;51.060;-0.086;2022-09-27T04:56:09;98928.84;;;7.15;62.64
57885;BME280;43703;51.060;-0.086;2022-09-27T04:58:34;98923.15;;;7.40;62.15
57885;BME280;43703;51.060;-0.086;2022-09-27T05:01:00;98919.86;;;7.89;64.07
57885;BME280;43703;51.060;-0.086;2022-09-27T05:03:24;98919.82;;;7.05;62.72
57885;BME280;43703;51.060;-0.086;2022-09-27T05:05:49;98919.42;;;7.91;60.49
57885;BME280;43703;51.060;-0.086;2022-09-27T05:08:14;98917.38;;;7.20;61.85
57885;BME280;43703;51.060;-0.086;2022-09-27T05:10:39;98923.59;;;7.07;61.83
57885;BME280;43703;51.060;-0.086;2022-09-27T05:13:04;98924.09;;;7.16;62.05
57885;BME280;43703;51.060;-0.086;2022-09-27T05:15:29;98929.54;;;8.38;63.38
57885;BME280;43703;51.060;-0.086;2022-09-27T05:17:54;98929.64;;;7.73;61.92
57885;BME280;43703;51.060;-0.086;2022-09-27T05:20:19;98927.97;;;7.12;61.75
57885;BME280;43703;51.060;-0.086;2022-09-27T05:22:44;98924.01;;;7.37;62.72
57885;BME280;43703;51.060;-0.086;2022-09-27T05:25:09;98924.57;;;7.82;62.95
57885;BME280;43703;51.060;-0.086;2022-09-27T05:27:34;98923.76;;;7.58;60.62
57885;BME280;43703;51.060;-0.086;2022-09-27T05:29:59;98915.42;;;7.34;61.64
57885;BME280;43703;51.060;-0.086;2022-09-27T05:32:24;98920.05;;;8.29;60.85
57885;BME280;43703;51.060;-0.086;2022-09-27T05:34:49;98918.57;;;8.82;61.31
57885;BME280;43703;51.060;-0.086;2022-09-27T05:37:14;98917.82;;;8.91;61.73
57885;BME280;43703;51.060;-0.086;2022-09-27T05:39:39;98923.32;;;8.50;59.08
57885;BME280;43703;51.060;-0.086;2022-09-27T05:42:04;98912.87;;;7.35;60.33
57885;BME280;43703;51.060;-0.086;2022-09-27T05:44:29;98915.56;;;7.78;60.82
57885;BME280;43703;51.060;-0.086;2022-09-27T05:46:54;98920.97;;;7.99;60.20
57885;BME280;43703;51.060;-0.086;2022-09-27T05:49:19;98921.94;;;7.76;59.80
57885;BME280;43703;51.060;-0.086;2022-09-27T05:51:44;98921.60;;;8.78;62.18
57885;BME280;43703;51.060;-0.086;2022-09-27T05:54:09;98918.31;;;8.63;60.05
57885;BME280;43703;51.060;-0.086;2022-09-27T05:56:34;98916.29;;;7.93;61.93
57885;BME280;43703;51.060;-0.086;2022-09-27T05:59:00;98915.83;;;8.10;60.59
57885;BME280;43703;51.060;-0.086;2022-09-27T06:01:25;98912.72;;;7.05;61.75
57885;BME280;43703;51.060;-0.086;2022-09-27T06:03:50;98913.14;;;7.33;61.16
57885;BME280;43703;51.060;-0.086;2022-09-27T06:06:15;98916.27;;;6.98;61.57
57885;BME280;43703;51.060;-0.086;2022-09-27T06:08:40;98918.34;;;8.29;60.86
57885;BME280;43703;51.060;-0.086;2022-09-27T06:11:07;98916.57;;;7.32;60.31
57885;BME280;43703;51.060;-0.086;2022-09-27T06:13:31;98916.76;;;7.90;60.77
57885;BME280;43703;51.060;-0.086;2022-09-27T06:15:55;98922.91;;;8.71;60.57
57885;BME280;43703;51.060;-0.086;2022-09-27T06:18:21;98920.45;;;8.80;62.08
57885;BME280;43703;51.060;-0.086;2022-09-27T06:20:46;98923.69;;;6.90;60.86
57885;BME280;43703;51.060;-0.086;2022-09-27T06:23:13;98928.39;;;6.93;61.76
57885;BME280;43703;51.060;-0.086;2022-09-27T06:25:37;98931.59;;;8.72;63.27
57885;BME280;43703;51.060;-0.086;2022-09-27T06:28:02;98927.43;;;8.14;62.24
57885;BME280;43703;51.060;-0.086;2022-09-27T06:30:27;98924.55;;;7.78;62.09
57885;BME280;43703;51.060;-0.086;2022-09-27T06:32:55;98920.82;;;7.34;61.33
57885;BME280;43703;51.060;-0.086;2022-09-27T06:35:17;98923.44;;;8.41;62.24
57885;BME280;43703;51.060;-0.086;2022-09-27T06:37:42;98914.15;;;8.21;60.86
57885;BME280;43703;51.060;-0.086;2022-09-27T06:40:08;98913.39;;;8.44;59.72
57885;BME280;43703;51.060;-0.086;2022-09-27T06:42:32;98910.00;;;8.25;59.71
57885;BME280;43703;51.060;-0.086;2022-09-27T06:44:57;98906.61;;;8.39;59.33
57885;BME280;43703;51.060;-0.086;2022-09-27T06:47:22;98905.79;;;8.04;60.00
57885;BME280;43703;51.060;-0.086;2022-09-27T06:49:48;98906.87;;;8.80;61.25
57885;BME280;43703;51.060;-0.086;2022-09-27T06:52:13;98909.33;;;8.46;59.63
57885;BME280;43703;51.060;-0.086;2022-09-27T06:54:38;98912.09;;;8.04;59.62
57885;BME280;43703;51.060;-0.086;2022-09-27T06:57:03;98910.15;;;9.29;62.88
57885;BME280;43703;51.060;-0.086;2022-09-27T06:59:28;98907.82;;;9.06;58.74
57885;BME280;43703;51.060;-0.086;2022-09-27T07:01:53;98901.38;;;8.75;58.45
57885;BME280;43703;51.060;-0.086;2022-09-27T07:04:18;98904.41;;;8.99;58.61
57885;BME280;43703;51.060;-0.086;2022-09-27T07:06:44;98910.81;;;8.51;61.18
57885;BME280;43703;51.060;-0.086;2022-09-27T07:09:08;98907.57;;;7.64;60.78
57885;BME280;43703;51.060;-0.086;2022-09-27T07:11:34;98901.38;;;7.09;62.80
57885;BME280;43703;51.060;-0.086;2022-09-27T07:13:58;98899.89;;;6.69;62.85
57885;BME280;43703;51.060;-0.086;2022-09-27T07:16:23;98899.09;;;7.73;64.03
57885;BME280;43703;51.060;-0.086;2022-09-27T07:18:49;98899.70;;;8.37;62.37
57885;BME280;43703;51.060;-0.086;2022-09-27T07:21:13;98896.40;;;8.77;61.54
57885;BME280;43703;51.060;-0.086;2022-09-27T07:23:43;98897.57;;;7.74;59.65
57885;BME280;43703;51.060;-0.086;2022-09-27T07:26:05;98893.77;;;8.85;60.91
57885;BME280;43703;51.060;-0.086;2022-09-27T07:28:29;98894.14;;;7.46;61.62
57885;BME280;43703;51.060;-0.086;2022-09-27T07:30:54;98896.69;;;8.41;63.61
57885;BME280;43703;51.060;-0.086;2022-09-27T07:33:19;98895.19;;;7.77;61.44
57885;BME280;43703;51.060;-0.086;2022-09-27T07:35:44;98897.14;;;9.39;61.36
57885;BME280;43703;51.060;-0.086;2022-09-27T07:38:10;98893.25;;;9.05;61.37
57885;BME280;43703;51.060;-0.086;2022-09-27T07:40:36;98890.66;;;8.38;60.18
57885;BME280;43703;51.060;-0.086;2022-09-27T07:43:00;98885.27;;;9.59;62.24
57885;BME280;43703;51.060;-0.086;2022-09-27T07:45:25;98883.99;;;7.73;62.10
57885;BME280;43703;51.060;-0.086;2022-09-27T07:47:51;98886.73;;;8.26;61.36
57885;BME280;43703;51.060;-0.086;2022-09-27T07:50:17;98887.79;;;9.19;60.56
57885;BME280;43703;51.060;-0.086;2022-09-27T07:52:44;98891.87;;;8.89;60.04
57885;BME280;43703;51.060;-0.086;2022-09-27T07:55:09;98889.97;;;9.39;60.58
57885;BME280;43703;51.060;-0.086;2022-09-27T07:57:34;98889.22;;;9.06;61.33
57885;BME280;43703;51.060;-0.086;2022-09-27T08:00:01;98891.52;;;10.10;59.79
57885;BME280;43703;51.060;-0.086;2022-09-27T08:02:26;98895.08;;;9.40;58.83
57885;BME280;43703;51.060;-0.086;2022-09-27T08:04:52;98893.35;;;9.40;59.05
57885;BME280;43703;51.060;-0.086;2022-09-27T08:07:17;98891.62;;;9.74;59.90
57885;BME280;43703;51.060;-0.086;2022-09-27T08:09:43;98885.47;;;9.29;60.03
57885;BME280;43703;51.060;-0.086;2022-09-27T08:12:08;98885.69;;;8.17;61.77
57885;BME280;43703;51.060;-0.086;2022-09-27T08:14:33;98883.60;;;9.47;60.24
57885;BME280;43703;51.060;-0.086;2022-09-27T08:16:58;98878.79;;;10.04;62.22
57885;BME280;43703;51.060;-0.086;2022-09-27T08:19:23;98885.21;;;11.56;63.30
57885;BME280;43703;51.060;-0.086;2022-09-27T08:21:50;98885.50;;;11.67;58.38
57885;BME280;43703;51.060;-0.086;2022-09-27T08:24:13;98889.34;;;11.23;55.35
57885;BME280;43703;51.060;-0.086;2022-09-27T08:26:38;98884.28;;;10.52;57.16
57885;BME280;43703;51.060;-0.086;2022-09-27T08:29:04;98882.58;;;11.33;57.61
57885;BME280;43703;51.060;-0.086;2022-09-27T08:31:29;98878.95;;;11.15;56.37
57885;BME280;43703;51.060;-0.086;2022-09-27T08:33:54;98878.14;;;11.20;55.83
57885;BME280;43703;51.060;-0.086;2022-09-27T08:36:19;98868.19;;;11.46;56.44
57885;BME280;43703;51.060;-0.086;2022-09-27T08:38:47;98860.41;;;9.71;58.81
57885;BME280;43703;51.060;-0.086;2022-09-27T08:41:19;98859.49;;;11.05;60.81
57885;BME280;43703;51.060;-0.086;2022-09-27T08:43:45;98861.95;;;12.40;57.06
57885;BME280;43703;51.060;-0.086;2022-09-27T08:46:11;98853.56;;;11.89;56.52
57885;BME280;43703;51.060;-0.086;2022-09-27T08:48:29;98847.83;;;11.51;55.86
57885;BME280;43703;51.060;-0.086;2022-09-27T08:50:55;98843.06;;;11.01;57.71
57885;BME280;43703;51.060;-0.086;2022-09-27T08:53:24;98840.19;;;12.13;56.19
57885;BME280;43703;51.060;-0.086;2022-09-27T08:55:48;98839.81;;;12.95;53.23
57885;BME280;43703;51.060;-0.086;2022-09-27T08:58:15;98844.65;;;11.44;53.17
57885;BME280;43703;51.060;-0.086;2022-09-27T09:00:38;98846.69;;;12.51;54.43
57885;BME280;43703;51.060;-0.086;2022-09-27T09:03:04;98843.11;;;12.00;56.58
57885;BME280;43703;51.060;-0.086;2022-09-27T09:05:32;98835.88;;;11.71;53.59
57885;BME280;43703;51.060;-0.086;2022-09-27T09:08:06;98831.14;;;13.01;53.88
57885;BME280;43703;51.060;-0.086;2022-09-27T09:10:32;98837.15;;;13.71;51.71
57885;BME280;43703;51.060;-0.086;2022-09-27T09:12:51;98832.29;;;13.57;52.08
57885;BME280;43703;51.060;-0.086;2022-09-27T09:15:20;98836.60;;;11.72;51.99
57885;BME280;43703;51.060;-0.086;2022-09-27T09:17:51;98838.50;;;11.95;51.37
57885;BME280;43703;51.060;-0.086;2022-09-27T09:20:13;98843.86;;;13.54;51.10
57885;BME280;43703;51.060;-0.086;2022-09-27T09:22:40;98841.27;;;13.58;52.58
57885;BME280;43703;51.060;-0.086;2022-09-27T09:25:05;98842.28;;;12.49;52.09
57885;BME280;43703;51.060;-0.086;2022-09-27T09:27:27;98839.10;;;13.19;52.55
57885;BME280;43703;51.060;-0.086;2022-09-27T09:30:01;98840.81;;;12.06;53.26
57885;BME280;43703;51.060;-0.086;2022-09-27T09:32:23;98837.73;;;12.24;52.42
57885;BME280;43703;51.060;-0.086;2022-09-27T09:34:42;98831.55;;;11.13;54.49
57885;BME280;43703;51.060;-0.086;2022-09-27T09:37:11;98822.46;;;10.93;54.94
57885;BME280;43703;51.060;-0.086;2022-09-27T09:39:35;98827.26;;;12.16;54.52
57885;BME280;43703;51.060;-0.086;2022-09-27T09:42:05;98827.84;;;12.28;53.12
57885;BME280;43703;51.060;-0.086;2022-09-27T09:44:28;98827.61;;;12.91;55.89
57885;BME280;43703;51.060;-0.086;2022-09-27T09:46:51;98828.96;;;14.07;55.31
57885;BME280;43703;51.060;-0.086;2022-09-27T09:49:19;98832.00;;;13.21;51.47
57885;BME280;43703;51.060;-0.086;2022-09-27T09:51:43;98836.57;;;13.49;51.15
57885;BME280;43703;51.060;-0.086;2022-09-27T09:54:12;98824.70;;;13.61;56.04
57885;BME280;43703;51.060;-0.086;2022-09-27T09:56:35;98820.03;;;12.15;53.03
57885;BME280;43703;51.060;-0.086;2022-09-27T09:59:00;98814.80;;;13.72;52.06
57885;BME280;43703;51.060;-0.086;2022-09-27T10:01:27;98820.83;;;12.06;54.30
57885;BME280;43703;51.060;-0.086;2022-09-27T10:03:50;98821.42;;;13.08;52.09
57885;BME280;43703;51.060;-0.086;2022-09-27T10:06:16;98819.21;;;11.72;55.75
57885;BME280;43703;51.060;-0.086;2022-09-27T10:08:41;98816.92;;;12.70;55.17
57885;BME280;43703;51.060;-0.086;2022-09-27T10:11:16;98811.72;;;12.27;54.39
57885;BME280;43703;51.060;-0.086;2022-09-27T10:13:34;98814.35;;;12.47;53.26
57885;BME280;43703;51.060;-0.086;2022-09-27T10:16:03;98808.99;;;12.44;54.09
57885;BME280;43703;51.060;-0.086;2022-09-27T10:18:25;98805.46;;;12.54;52.38
57885;BME280;43703;51.060;-0.086;2022-09-27T10:20:54;98802.23;;;11.09;54.90
57885;BME280;43703;51.060;-0.086;2022-09-27T10:23:18;98800.44;;;12.86;55.12
57885;BME280;43703;51.060;-0.086;2022-09-27T10:25:48;98792.64;;;12.82;54.65
57885;BME280;43703;51.060;-0.086;2022-09-27T10:28:07;98785.26;;;13.20;54.91
57885;BME280;43703;51.060;-0.086;2022-09-27T10:30:34;98781.82;;;13.81;51.66
57885;BME280;43703;51.060;-0.086;2022-09-27T10:33:13;98779.51;;;13.59;53.90
57885;BME280;43703;51.060;-0.086;2022-09-27T10:35:32;98776.43;;;13.41;50.42
57885;BME280;43703;51.060;-0.086;2022-09-27T10:37:50;98766.82;;;13.01;49.19
57885;BME280;43703;51.060;-0.086;2022-09-27T10:40:30;98765.92;;;13.32;50.53
57885;BME280;43703;51.060;-0.086;2022-09-27T10:42:42;98766.35;;;13.26;48.96
57885;BME280;43703;51.060;-0.086;2022-09-27T10:45:19;98769.86;;;13.95;50.42
57885;BME280;43703;51.060;-0.086;2022-09-27T10:47:35;98769.51;;;11.86;52.40
57885;BME280;43703;51.060;-0.086;2022-09-27T10:50:03;98769.03;;;12.28;51.92
57885;BME280;43703;51.060;-0.086;2022-09-27T10:52:26;98770.31;;;12.95;52.76
57885;BME280;43703;51.060;-0.086;2022-09-27T10:54:53;98766.54;;;13.21;53.22
57885;BME280;43703;51.060;-0.086;2022-09-27T10:57:18;98760.90;;;13.31;53.84
57885;BME280;43703;51.060;-0.086;2022-09-27T10:59:52;98757.73;;;12.94;53.61
57885;BME280;43703;51.060;-0.086;2022-09-27T11:02:17;98756.11;;;13.15;54.74
57885;BME280;43703;51.060;-0.086;2022-09-27T11:04:36;98754.14;;;13.57;54.48
57885;BME280;43703;51.060;-0.086;2022-09-27T11:07:08;98750.93;;;13.99;54.76
57885;BME280;43703;51.060;-0.086;2022-09-27T11:09:27;98747.45;;;13.22;57.53
57885;BME280;43703;51.060;-0.086;2022-09-27T11:14:21;98745.38;;;13.49;58.03
57885;BME280;43703;51.060;-0.086;2022-09-27T11:16:52;98744.31;;;14.84;54.99
57885;BME280;43703;51.060;-0.086;2022-09-27T11:19:24;98739.59;;;14.76;52.97
57885;BME280;43703;51.060;-0.086;2022-09-27T11:21:42;98736.90;;;15.68;53.94
57885;BME280;43703;51.060;-0.086;2022-09-27T11:24:15;98738.67;;;15.42;51.36
57885;BME280;43703;51.060;-0.086;2022-09-27T11:26:38;98728.31;;;15.23;52.19
57885;BME280;43703;51.060;-0.086;2022-09-27T11:28:59;98725.38;;;14.60;54.23
57885;BME280;43703;51.060;-0.086;2022-09-27T11:31:27;98722.56;;;13.89;53.41
57885;BME280;43703;51.060;-0.086;2022-09-27T11:33:57;98713.93;;;13.41;51.84
57885;BME280;43703;51.060;-0.086;2022-09-27T11:36:17;98716.19;;;15.27;52.19
57885;BME280;43703;51.060;-0.086;2022-09-27T11:38:45;98706.91;;;14.24;51.66
57885;BME280;43703;51.060;-0.086;2022-09-27T11:41:13;98706.39;;;13.91;49.58
57885;BME280;43703;51.060;-0.086;2022-09-27T11:43:44;98701.03;;;13.96;51.87
57885;BME280;43703;51.060;-0.086;2022-09-27T11:46:00;98700.36;;;14.55;53.15
57885;BME280;43703;51.060;-0.086;2022-09-27T11:48:32;98694.61;;;14.19;47.72
57885;BME280;43703;51.060;-0.086;2022-09-27T11:50:58;98686.73;;;14.76;48.47
57885;BME280;43703;51.060;-0.086;2022-09-27T11:53:21;98688.89;;;15.84;48.07
57885;BME280;43703;51.060;-0.086;2022-09-27T11:55:44;98684.81;;;15.02;46.73
57885;BME280;43703;51.060;-0.086;2022-09-27T11:58:09;98683.33;;;14.70;45.67
57885;BME280;43703;51.060;-0.086;2022-09-27T12:00:37;98678.19;;;16.32;46.87
57885;BME280;43703;51.060;-0.086;2022-09-27T12:03:07;98672.95;;;16.18;43.68
57885;BME280;43703;51.060;-0.086;2022-09-27T12:05:25;98669.83;;;16.27;44.72
57885;BME280;43703;51.060;-0.086;2022-09-27T12:08:03;98671.77;;;15.31;43.14
57885;BME280;43703;51.060;-0.086;2022-09-27T12:10:14;98665.41;;;14.23;46.04
57885;BME280;43703;51.060;-0.086;2022-09-27T12:12:40;98668.54;;;14.73;45.81
57885;BME280;43703;51.060;-0.086;2022-09-27T12:15:11;98658.53;;;13.61;52.70
57885;BME280;43703;51.060;-0.086;2022-09-27T12:17:32;98653.96;;;14.59;47.96
57885;BME280;43703;51.060;-0.086;2022-09-27T12:19:57;98651.27;;;14.00;50.48
57885;BME280;43703;51.060;-0.086;2022-09-27T12:22:25;98647.46;;;14.19;49.18
57885;BME280;43703;51.060;-0.086;2022-09-27T12:24:47;98647.50;;;14.19;51.28
57885;BME280;43703;51.060;-0.086;2022-09-27T12:27:15;98644.70;;;13.70;48.72
57885;BME280;43703;51.060;-0.086;2022-09-27T12:29:39;98643.56;;;15.08;48.15
57885;BME280;43703;51.060;-0.086;2022-09-27T12:32:10;98638.28;;;13.74;47.76
57885;BME280;43703;51.060;-0.086;2022-09-27T12:34:36;98640.79;;;14.77;46.53
57885;BME280;43703;51.060;-0.086;2022-09-27T12:37:01;98640.01;;;14.94;46.09
57885;BME280;43703;51.060;-0.086;2022-09-27T12:39:24;98635.59;;;14.05;48.82
57885;BME280;43703;51.060;-0.086;2022-09-27T12:41:51;98628.03;;;14.01;48.76
57885;BME280;43703;51.060;-0.086;2022-09-27T12:44:13;98621.81;;;14.23;47.83
57885;BME280;43703;51.060;-0.086;2022-09-27T12:46:48;98627.75;;;12.84;48.02
57885;BME280;43703;51.060;-0.086;2022-09-27T12:49:11;98628.04;;;13.01;51.83
57885;BME280;43703;51.060;-0.086;2022-09-27T12:51:35;98625.03;;;13.27;50.22
57885;BME280;43703;51.060;-0.086;2022-09-27T12:54:12;98617.78;;;15.03;48.10